createdAt,value
2018-07-08T00:00:25.062Z,17.10
2018-07-08T00:02:53.327Z,17.00
2018-07-08T00:05:21.617Z,16.90
2018-07-08T00:07:49.906Z,16.90
2018-07-08T00:10:18.132Z,16.80
2018-07-08T00:12:46.348Z,16.70
2018-07-08T00:15:14.560Z,16.80
2018-07-08T00:17:42.857Z,16.80
2018-07-08T00:20:11.056Z,16.80
2018-07-08T00:22:39.332Z,16.80
2018-07-08T00:25:07.621Z,16.80
2018-07-08T00:27:36.012Z,16.80
2018-07-08T00:30:04.569Z,16.80
2018-07-08T00:32:32.893Z,16.80
2018-07-08T00:35:01.083Z,16.80
2018-07-08T00:37:29.273Z,16.80
2018-07-08T00:39:57.556Z,16.80
2018-07-08T00:42:25.716Z,16.80
2018-07-08T00:47:21.887Z,16.70
2018-07-08T00:49:50.096Z,16.60
2018-07-08T00:52:18.278Z,16.50
2018-07-08T00:54:46.487Z,16.40
2018-07-08T00:57:15.285Z,16.40
2018-07-08T00:59:43.497Z,16.30
2018-07-08T01:02:11.746Z,16.30
2018-07-08T01:07:08.433Z,16.20
2018-07-08T01:09:36.636Z,16.10
2018-07-08T01:12:04.844Z,16.10
2018-07-08T01:14:33.090Z,16.10
2018-07-08T01:17:01.318Z,16.20
2018-07-08T01:19:30.957Z,16.20
2018-07-08T01:21:59.177Z,16.30
2018-07-08T01:24:27.424Z,16.30
2018-07-08T01:26:55.662Z,16.40
2018-07-08T01:29:23.905Z,16.50
2018-07-08T01:31:52.129Z,16.60
2018-07-08T01:34:20.422Z,16.70
2018-07-08T01:36:48.628Z,16.70
2018-07-08T01:39:16.898Z,16.80
2018-07-08T01:41:45.187Z,16.90
2018-07-08T01:44:13.444Z,16.90
2018-07-08T01:46:41.597Z,16.90
2018-07-08T01:49:09.849Z,17.00
2018-07-08T01:51:38.100Z,17.00
2018-07-08T01:54:06.323Z,17.00
2018-07-08T01:56:34.618Z,17.10
2018-07-08T01:59:02.904Z,17.00
2018-07-08T02:01:31.189Z,17.10
2018-07-08T02:06:27.506Z,17.10
2018-07-08T02:08:55.694Z,17.00
2018-07-08T02:11:24.000Z,17.00
2018-07-08T02:13:52.747Z,17.00
2018-07-08T02:16:21.576Z,17.00
2018-07-08T02:18:49.812Z,16.90
2018-07-08T02:21:18.046Z,16.90
2018-07-08T02:23:46.968Z,16.90
2018-07-08T02:26:15.240Z,16.90
2018-07-08T02:28:43.477Z,16.90
2018-07-08T02:31:11.782Z,16.90
2018-07-08T02:33:40.070Z,16.90
2018-07-08T02:38:36.426Z,16.90
2018-07-08T02:41:04.631Z,16.80
2018-07-08T02:43:32.852Z,16.80
2018-07-08T02:46:01.061Z,16.80
2018-07-08T02:48:29.276Z,16.80
2018-07-08T02:50:57.491Z,16.80
2018-07-08T02:53:25.700Z,16.80
2018-07-08T02:55:53.913Z,16.80
2018-07-08T02:58:22.137Z,16.90
2018-07-08T03:00:50.426Z,16.90
2018-07-08T03:03:18.625Z,16.90
2018-07-08T03:05:46.869Z,16.90
2018-07-08T03:08:15.091Z,16.90
2018-07-08T03:10:43.308Z,16.90
2018-07-08T03:13:11.501Z,16.90
2018-07-08T03:15:39.724Z,16.80
2018-07-08T03:18:07.925Z,16.70
2018-07-08T03:20:36.158Z,16.60
2018-07-08T03:23:04.405Z,16.50
2018-07-08T03:25:32.629Z,16.40
2018-07-08T03:28:00.881Z,16.20
2018-07-08T03:30:29.091Z,16.10
2018-07-08T03:32:57.387Z,15.90
2018-07-08T03:35:25.589Z,15.80
2018-07-08T03:37:53.884Z,15.70
2018-07-08T03:40:22.088Z,15.50
2018-07-08T03:42:50.409Z,15.40
2018-07-08T03:45:19.110Z,15.30
2018-07-08T03:47:47.318Z,15.20
2018-07-08T03:50:15.491Z,15.10
2018-07-08T03:52:43.812Z,15.10
2018-07-08T03:55:12.063Z,15.00
2018-07-08T03:57:40.252Z,14.90
2018-07-08T04:00:08.460Z,14.80
2018-07-08T04:02:36.667Z,14.80
2018-07-08T04:05:05.014Z,14.80
2018-07-08T04:07:33.222Z,14.70
2018-07-08T04:10:01.461Z,14.70
2018-07-08T04:12:29.658Z,14.60
2018-07-08T04:14:57.857Z,14.60
2018-07-08T04:17:26.073Z,14.60
2018-07-08T04:19:54.287Z,14.60
2018-07-08T04:22:22.492Z,14.60
2018-07-08T04:24:50.702Z,14.60
2018-07-08T04:27:18.987Z,14.60
2018-07-08T04:29:47.176Z,14.60
2018-07-08T04:32:15.400Z,14.60
2018-07-08T04:34:43.662Z,14.60
2018-07-08T04:37:11.868Z,14.60
2018-07-08T04:39:40.146Z,14.70
2018-07-08T04:42:08.351Z,14.70
2018-07-08T04:44:36.548Z,14.70
2018-07-08T04:47:04.802Z,14.70
2018-07-08T04:49:33.529Z,14.70
2018-07-08T04:52:01.732Z,14.80
2018-07-08T04:54:30.032Z,14.80
2018-07-08T04:56:58.257Z,14.80
2018-07-08T04:59:26.467Z,14.90
2018-07-08T05:01:54.697Z,15.00
2018-07-08T05:04:22.908Z,15.00
2018-07-08T05:06:51.145Z,15.10
2018-07-08T05:09:19.344Z,15.20
2018-07-08T05:11:47.683Z,15.30
2018-07-08T05:14:15.970Z,15.30
2018-07-08T05:16:44.116Z,15.40
2018-07-08T05:19:12.332Z,15.40
2018-07-08T05:24:08.507Z,15.50
2018-07-08T05:26:37.048Z,15.60
2018-07-08T05:29:05.440Z,15.60
2018-07-08T05:31:33.663Z,15.70
2018-07-08T05:34:01.848Z,15.70
2018-07-08T05:36:30.045Z,15.80
2018-07-08T05:38:59.453Z,15.90
2018-07-08T05:43:55.845Z,16.20
2018-07-08T05:46:24.136Z,16.30
2018-07-08T05:48:52.427Z,16.50
2018-07-08T05:51:20.629Z,16.60
2018-07-08T05:53:48.956Z,16.70
2018-07-08T05:56:17.159Z,16.80
2018-07-08T05:58:45.373Z,17.00
2018-07-08T06:01:13.580Z,17.00
2018-07-08T06:03:41.896Z,17.20
2018-07-08T06:06:10.093Z,17.20
2018-07-08T06:08:38.283Z,17.40
2018-07-08T06:11:07.320Z,17.40
2018-07-08T06:13:35.524Z,17.50
2018-07-08T06:16:03.701Z,17.60
2018-07-08T06:18:31.961Z,17.70
2018-07-08T06:21:00.128Z,17.70
2018-07-08T06:23:28.367Z,17.80
2018-07-08T06:25:56.638Z,17.90
2018-07-08T06:28:24.860Z,18.00
2018-07-08T06:30:53.056Z,18.00
2018-07-08T06:33:21.268Z,18.10
2018-07-08T06:35:49.457Z,18.20
2018-07-08T06:38:17.669Z,18.30
2018-07-08T06:40:45.868Z,18.30
2018-07-08T06:43:14.080Z,18.40
2018-07-08T06:45:42.321Z,18.50
2018-07-08T06:48:10.548Z,18.60
2018-07-08T06:50:38.737Z,18.60
2018-07-08T06:53:06.916Z,18.70
2018-07-08T06:55:35.120Z,18.70
2018-07-08T06:58:03.341Z,18.80
2018-07-08T07:00:31.589Z,18.80
2018-07-08T07:02:59.823Z,18.90
2018-07-08T07:05:28.037Z,18.90
2018-07-08T07:07:56.248Z,19.00
2018-07-08T07:10:24.468Z,19.10
2018-07-08T07:12:52.677Z,19.20
2018-07-08T07:15:20.907Z,19.30
2018-07-08T07:17:49.131Z,19.30
2018-07-08T07:20:17.333Z,19.50
2018-07-08T07:22:45.567Z,19.60
2018-07-08T07:25:13.754Z,19.70
2018-07-08T07:27:42.780Z,19.80
2018-07-08T07:30:11.088Z,19.80
2018-07-08T07:32:39.329Z,19.90
2018-07-08T07:35:07.548Z,20.00
2018-07-08T07:37:35.769Z,20.10
2018-07-08T07:40:04.077Z,20.20
2018-07-08T07:42:32.360Z,20.30
2018-07-08T07:45:00.575Z,20.40
2018-07-08T07:47:28.812Z,20.50
2018-07-08T07:49:57.008Z,20.50
2018-07-08T07:52:26.197Z,20.60
2018-07-08T07:54:55.329Z,20.70
2018-07-08T07:57:24.141Z,20.70
2018-07-08T07:59:52.952Z,20.70
2018-07-08T08:02:21.281Z,20.80
2018-07-08T08:04:49.500Z,20.90
2018-07-08T08:07:17.741Z,20.90
2018-07-08T08:09:45.987Z,21.00
2018-07-08T08:12:14.171Z,21.00
2018-07-08T08:17:10.391Z,21.20
2018-07-08T08:19:38.580Z,21.30
2018-07-08T08:22:06.829Z,21.40
2018-07-08T08:24:35.053Z,21.50
2018-07-08T08:27:03.260Z,21.50
2018-07-08T08:29:31.472Z,21.60
2018-07-08T08:32:00.285Z,21.70
2018-07-08T08:35:00.956Z,21.70
2018-07-08T08:37:44.937Z,21.80
2018-07-08T08:40:13.950Z,21.90
2018-07-08T08:42:42.514Z,22.00
2018-07-08T08:45:11.993Z,22.00
2018-07-08T08:47:40.224Z,22.10
2018-07-08T08:50:09.064Z,22.10
2018-07-08T08:52:37.410Z,22.20
2018-07-08T08:55:06.372Z,22.30
2018-07-08T08:57:34.608Z,22.30
2018-07-08T09:00:03.073Z,22.30
2018-07-08T09:02:31.292Z,22.40
2018-07-08T09:04:59.494Z,22.40
2018-07-08T09:07:27.720Z,22.50
2018-07-08T09:09:55.997Z,22.50
2018-07-08T09:12:24.229Z,22.60
2018-07-08T09:14:52.431Z,22.60
2018-07-08T09:17:20.680Z,22.80
2018-07-08T09:19:48.876Z,22.80
2018-07-08T09:22:17.069Z,22.90
2018-07-08T09:24:45.288Z,22.90
2018-07-08T09:27:13.512Z,23.00
2018-07-08T09:29:41.759Z,23.00
2018-07-08T09:32:09.976Z,23.00
2018-07-08T09:34:38.186Z,23.00
2018-07-08T09:37:06.385Z,23.10
2018-07-08T09:39:34.604Z,23.10
2018-07-08T09:42:02.816Z,23.10
2018-07-08T09:44:31.001Z,23.10
2018-07-08T09:46:59.225Z,23.10
2018-07-08T09:54:23.445Z,23.30
2018-07-08T09:56:51.687Z,23.40
2018-07-08T09:59:19.881Z,23.40
2018-07-08T10:01:49.140Z,23.40
2018-07-08T10:04:19.624Z,23.50
2018-07-08T10:06:48.528Z,23.50
2018-07-08T10:09:17.911Z,23.50
2018-07-08T10:11:46.159Z,23.50
2018-07-08T10:14:16.633Z,23.50
2018-07-08T10:16:44.860Z,23.50
2018-07-08T10:19:14.150Z,23.70
2018-07-08T10:21:42.584Z,23.70
2018-07-08T10:24:11.134Z,23.80
2018-07-08T10:26:39.348Z,23.90
2018-07-08T10:29:08.473Z,24.10
2018-07-08T10:31:45.497Z,24.10
2018-07-08T10:34:13.777Z,24.30
2018-07-08T10:36:42.006Z,24.50
2018-07-08T10:39:11.536Z,24.80
2018-07-08T10:41:39.959Z,25.00
2018-07-08T10:44:08.203Z,25.20
2018-07-08T10:46:36.458Z,25.40
2018-07-08T10:49:04.732Z,25.70
2018-07-08T10:51:32.996Z,25.70
2018-07-08T10:54:01.233Z,25.70
2018-07-08T10:56:29.480Z,25.60
2018-07-08T10:58:57.728Z,25.40
2018-07-08T11:01:25.957Z,25.40
2018-07-08T11:03:54.196Z,25.60
2018-07-08T11:06:22.501Z,25.90
2018-07-08T11:08:50.725Z,26.20
2018-07-08T11:11:18.929Z,26.30
2018-07-08T11:13:47.169Z,26.20
2018-07-08T11:16:15.374Z,26.20
2018-07-08T11:18:43.640Z,26.20
2018-07-08T11:21:11.865Z,26.10
2018-07-08T11:23:40.084Z,26.00
2018-07-08T11:26:08.338Z,25.90
2018-07-08T11:28:36.635Z,25.80
2018-07-08T11:31:05.403Z,25.70
2018-07-08T11:33:33.630Z,25.70
2018-07-08T11:36:01.864Z,25.70
2018-07-08T11:38:30.120Z,25.70
2018-07-08T11:40:58.356Z,25.60
2018-07-08T11:43:26.577Z,25.50
2018-07-08T11:45:54.802Z,25.50
2018-07-08T11:48:23.004Z,25.50
2018-07-08T11:50:51.253Z,25.70
2018-07-08T11:53:19.532Z,25.70
2018-07-08T11:55:47.782Z,25.60
2018-07-08T11:58:16.011Z,25.60
2018-07-08T12:00:44.240Z,25.60
2018-07-08T12:03:12.447Z,25.70
2018-07-08T12:05:40.706Z,25.80
2018-07-08T12:08:08.916Z,25.80
2018-07-08T12:10:37.206Z,25.70
2018-07-08T12:13:05.699Z,25.70
2018-07-08T12:15:33.936Z,25.80
2018-07-08T12:18:02.236Z,25.90
2018-07-08T12:20:30.442Z,26.00
2018-07-08T12:22:58.676Z,26.20
2018-07-08T12:25:26.931Z,26.30
2018-07-08T12:27:55.131Z,26.40
2018-07-08T12:30:23.375Z,26.30
2018-07-08T12:32:51.707Z,26.30
2018-07-08T12:35:19.957Z,26.20
2018-07-08T12:37:48.169Z,26.10
2018-07-08T12:40:16.369Z,26.10
2018-07-08T12:42:44.580Z,26.10
2018-07-08T12:45:12.844Z,26.10
2018-07-08T12:47:41.071Z,26.00
2018-07-08T12:50:09.281Z,26.00
2018-07-08T12:52:37.534Z,26.00
2018-07-08T12:55:05.767Z,26.10
2018-07-08T12:57:33.964Z,26.10
2018-07-08T13:00:02.163Z,26.10
2018-07-08T13:02:30.384Z,26.20
2018-07-08T13:04:58.737Z,26.20
2018-07-08T13:07:27.129Z,26.20
2018-07-08T13:09:55.700Z,26.30
2018-07-08T13:12:23.897Z,26.30
2018-07-08T13:14:52.105Z,26.30
2018-07-08T13:17:20.304Z,26.40
2018-07-08T13:19:48.489Z,26.30
2018-07-08T13:22:16.733Z,26.30
2018-07-08T13:24:44.972Z,26.30
2018-07-08T13:27:13.237Z,26.30
2018-07-08T13:29:41.432Z,26.30
2018-07-08T13:32:09.693Z,26.40
2018-07-08T13:34:37.876Z,26.40
2018-07-08T13:37:06.352Z,26.50
2018-07-08T13:39:34.602Z,26.60
2018-07-08T13:42:02.829Z,26.60
2018-07-08T13:44:31.028Z,26.70
2018-07-08T13:49:27.180Z,26.80
2018-07-08T13:51:55.406Z,26.90
2018-07-08T13:54:23.765Z,27.00
2018-07-08T13:56:51.984Z,27.10
2018-07-08T13:59:20.375Z,27.20
2018-07-08T14:01:48.658Z,27.30
2018-07-08T14:06:44.859Z,27.60
2018-07-08T14:09:13.066Z,27.70
2018-07-08T14:11:41.339Z,27.90
2018-07-08T14:14:09.567Z,28.00
2018-07-08T14:16:38.647Z,28.20
2018-07-08T14:19:06.952Z,28.40
2018-07-08T14:21:35.220Z,28.60
2018-07-08T14:24:03.537Z,28.80
2018-07-08T14:26:31.741Z,29.10
2018-07-08T14:28:59.972Z,29.30
2018-07-08T14:31:28.217Z,29.40
2018-07-08T14:33:56.436Z,29.60
2018-07-08T14:36:24.708Z,29.80
2018-07-08T14:38:52.936Z,30.10
2018-07-08T14:41:21.207Z,30.50
2018-07-08T14:43:49.428Z,30.70
2018-07-08T14:46:17.738Z,31.10
2018-07-08T14:48:45.847Z,31.60
2018-07-08T14:51:14.050Z,32.00
2018-07-08T14:53:42.256Z,32.20
2018-07-08T14:56:11.424Z,32.30
2018-07-08T14:58:39.600Z,32.50
2018-07-08T15:01:07.805Z,32.70
2018-07-08T15:03:36.087Z,32.90
2018-07-08T15:06:04.298Z,32.90
2018-07-08T15:08:32.569Z,33.00
2018-07-08T15:11:00.833Z,32.90
2018-07-08T15:13:29.089Z,33.00
2018-07-08T15:15:57.340Z,33.20
2018-07-08T15:18:25.545Z,33.30
2018-07-08T15:20:53.820Z,33.30
2018-07-08T15:23:22.036Z,33.10
2018-07-08T15:25:50.229Z,32.90
2018-07-08T15:28:18.459Z,32.50
2018-07-08T15:30:47.274Z,32.20
2018-07-08T15:33:16.017Z,31.90
2018-07-08T15:35:44.799Z,31.60
2018-07-08T15:38:13.213Z,31.20
2018-07-08T15:40:41.423Z,30.80
2018-07-08T15:43:09.636Z,30.50
2018-07-08T15:45:37.892Z,30.20
2018-07-08T15:48:06.299Z,30.00
2018-07-08T15:50:34.553Z,29.90
2018-07-08T15:53:02.768Z,29.80
2018-07-08T15:55:31.052Z,29.80
2018-07-08T15:57:59.283Z,29.80
2018-07-08T16:00:27.524Z,29.80
2018-07-08T16:02:55.773Z,29.90
2018-07-08T16:05:23.989Z,30.10
2018-07-08T16:07:52.159Z,30.30
2018-07-08T16:10:20.429Z,30.60
2018-07-08T16:12:48.649Z,30.90
2018-07-08T16:15:16.930Z,31.30
2018-07-08T16:17:45.149Z,31.50
2018-07-08T16:20:13.378Z,31.70
2018-07-08T16:22:41.588Z,31.90
2018-07-08T16:25:09.828Z,32.30
2018-07-08T16:27:38.048Z,33.10
2018-07-08T16:30:06.320Z,33.70
2018-07-08T16:32:34.862Z,34.20
2018-07-08T16:35:03.129Z,34.10
2018-07-08T16:37:31.395Z,33.90
2018-07-08T16:39:59.665Z,33.80
2018-07-08T16:42:27.885Z,33.80
2018-07-08T16:44:56.068Z,33.80
2018-07-08T16:47:24.288Z,33.90
2018-07-08T16:49:52.544Z,33.90
2018-07-08T16:52:20.986Z,33.70
2018-07-08T16:54:49.325Z,33.20
2018-07-08T16:57:17.536Z,32.70
2018-07-08T16:59:45.812Z,32.20
2018-07-08T17:02:14.231Z,31.80
2018-07-08T17:04:42.458Z,31.50
2018-07-08T17:07:10.665Z,31.50
2018-07-08T17:09:38.882Z,31.60
2018-07-08T17:12:07.385Z,31.80
2018-07-08T17:14:35.621Z,32.30
2018-07-08T17:17:03.856Z,33.10
2018-07-08T17:19:32.080Z,34.10
2018-07-08T17:22:00.344Z,35.00
2018-07-08T17:26:56.638Z,36.10
2018-07-08T17:29:24.864Z,36.60
2018-07-08T17:31:53.872Z,37.00
2018-07-08T17:34:22.153Z,37.30
2018-07-08T17:36:50.453Z,37.70
2018-07-08T17:39:18.664Z,37.80
2018-07-08T17:41:47.245Z,37.90
2018-07-08T17:44:15.477Z,37.80
2018-07-08T17:46:43.731Z,37.80
2018-07-08T17:49:11.872Z,37.80
2018-07-08T17:51:40.080Z,37.70
2018-07-08T17:54:08.349Z,37.60
2018-07-08T17:56:37.097Z,37.60
2018-07-08T17:59:05.332Z,37.70
2018-07-08T18:01:33.568Z,37.80
2018-07-08T18:04:01.814Z,37.90
2018-07-08T18:06:30.023Z,37.90
2018-07-08T18:08:58.655Z,37.90
2018-07-08T18:11:26.812Z,37.80
2018-07-08T18:13:55.045Z,37.60
2018-07-08T18:16:23.436Z,37.50
2018-07-08T18:18:51.673Z,37.20
2018-07-08T18:21:19.948Z,37.00
2018-07-08T18:23:48.240Z,36.80
2018-07-08T18:26:16.465Z,36.70
2018-07-08T18:28:44.683Z,36.40
2018-07-08T18:31:12.902Z,36.10
2018-07-08T18:33:42.178Z,35.70
2018-07-08T18:36:10.392Z,35.30
2018-07-08T18:38:38.636Z,34.70
2018-07-08T18:41:07.092Z,33.70
2018-07-08T18:43:35.333Z,32.70
2018-07-08T18:46:03.765Z,31.60
2018-07-08T18:48:32.457Z,30.50
2018-07-08T18:51:01.113Z,29.40
2018-07-08T18:53:29.926Z,28.40
2018-07-08T18:55:58.052Z,27.70
2018-07-08T18:58:26.276Z,26.90
2018-07-08T19:00:54.517Z,26.30
2018-07-08T19:03:22.740Z,25.70
2018-07-08T19:05:50.976Z,25.20
2018-07-08T19:08:19.224Z,24.80
2018-07-08T19:10:47.449Z,24.40
2018-07-08T19:13:15.928Z,24.00
2018-07-08T19:15:44.163Z,23.60
2018-07-08T19:18:12.366Z,23.20
2018-07-08T19:20:40.632Z,22.80
2018-07-08T19:23:08.831Z,22.40
2018-07-08T19:25:37.116Z,22.10
2018-07-08T19:28:05.528Z,21.70
2018-07-08T19:30:33.767Z,21.40
2018-07-08T19:33:02.026Z,21.00
2018-07-08T19:35:30.495Z,20.70
2018-07-08T19:37:58.748Z,20.40
2018-07-08T19:40:26.959Z,20.10
2018-07-08T19:42:55.239Z,19.80
2018-07-08T19:45:23.534Z,19.60
2018-07-08T19:47:51.822Z,19.40
2018-07-08T19:50:20.024Z,19.20
2018-07-08T19:52:48.310Z,19.10
2018-07-08T19:55:16.518Z,18.90
2018-07-08T19:57:44.709Z,18.70
2018-07-08T20:00:12.928Z,18.50
2018-07-08T20:02:41.168Z,18.40
2018-07-08T20:05:09.473Z,18.20
2018-07-08T20:07:37.786Z,18.10
2018-07-08T20:10:05.908Z,17.90
2018-07-08T20:12:34.500Z,17.70
2018-07-08T20:15:02.766Z,17.60
2018-07-08T20:17:32.089Z,17.40
2018-07-08T20:20:00.293Z,17.20
2018-07-08T20:22:28.504Z,17.00
2018-07-08T20:24:56.702Z,16.90
2018-07-08T20:27:24.924Z,16.70
2018-07-08T20:29:53.585Z,16.60
2018-07-08T20:32:21.847Z,16.50
2018-07-08T20:34:50.021Z,16.30
2018-07-08T20:37:18.278Z,16.20
2018-07-08T20:39:46.461Z,16.10
2018-07-08T20:42:14.696Z,15.90
2018-07-08T20:44:42.897Z,15.80
2018-07-08T20:47:11.126Z,15.70
2018-07-08T20:49:39.328Z,15.70
2018-07-08T20:52:07.548Z,15.50
2018-07-08T20:54:35.845Z,15.50
2018-07-08T20:57:04.072Z,15.40
2018-07-08T20:59:32.296Z,15.20
2018-07-08T21:02:01.620Z,15.20
2018-07-08T21:06:57.812Z,15.00
2018-07-08T21:09:26.145Z,14.90
2018-07-08T21:11:54.345Z,14.80
2018-07-08T21:14:22.861Z,14.70
2018-07-08T21:16:51.401Z,14.60
2018-07-08T21:19:19.628Z,14.60
2018-07-08T21:21:47.892Z,14.50
2018-07-08T21:24:16.451Z,14.50
2018-07-08T21:26:44.697Z,14.40
2018-07-08T21:29:13.468Z,14.30
2018-07-08T21:31:41.780Z,14.20
2018-07-08T21:34:10.000Z,14.10
2018-07-08T21:36:38.245Z,14.00
2018-07-08T21:39:07.784Z,14.00
2018-07-08T21:41:36.025Z,13.90
2018-07-08T21:44:04.270Z,13.80
2018-07-08T21:46:32.621Z,13.80
2018-07-08T21:49:00.832Z,13.70
2018-07-08T21:51:29.094Z,13.70
2018-07-08T21:53:57.416Z,13.60
2018-07-08T21:56:25.744Z,13.60
2018-07-08T22:01:22.788Z,13.60
2018-07-08T22:03:51.736Z,13.50
2018-07-08T22:06:20.372Z,13.40
2018-07-08T22:08:48.597Z,13.40
2018-07-08T22:11:16.860Z,13.40
2018-07-08T22:13:45.320Z,13.40
2018-07-08T22:16:13.551Z,13.30
2018-07-08T22:21:10.070Z,13.30
2018-07-08T22:23:38.280Z,13.20
2018-07-08T22:26:06.553Z,13.20
2018-07-08T22:28:34.828Z,13.10
2018-07-08T22:31:03.407Z,13.10
2018-07-08T22:33:31.626Z,13.00
2018-07-08T22:35:59.873Z,13.00
2018-07-08T22:40:56.067Z,13.00
2018-07-08T22:43:24.288Z,12.90
2018-07-08T22:45:52.502Z,12.90
2018-07-08T22:48:20.719Z,12.80
2018-07-08T22:50:48.947Z,12.80
2018-07-08T22:53:17.149Z,12.70
2018-07-08T22:55:45.403Z,12.70
2018-07-08T22:58:13.585Z,12.70
2018-07-08T23:00:53.280Z,12.60
2018-07-08T23:03:42.789Z,12.60
2018-07-08T23:06:11.000Z,12.50
2018-07-08T23:08:39.472Z,12.50
2018-07-08T23:11:07.953Z,12.50
2018-07-08T23:13:36.148Z,12.40
2018-07-08T23:16:04.405Z,12.40
2018-07-08T23:18:32.661Z,12.40
2018-07-08T23:21:01.073Z,12.40
2018-07-08T23:23:29.304Z,12.30
2018-07-08T23:25:57.552Z,12.30
2018-07-08T23:28:25.736Z,12.30
2018-07-08T23:30:54.844Z,12.30
2018-07-08T23:33:23.086Z,12.30
2018-07-08T23:38:19.326Z,12.20
2018-07-08T23:40:47.489Z,12.20
2018-07-08T23:43:15.716Z,12.20
2018-07-08T23:45:43.927Z,12.10
2018-07-08T23:48:12.145Z,12.10
2018-07-08T23:50:40.388Z,12.10
2018-07-08T23:53:08.587Z,12.00
2018-07-08T23:55:36.796Z,12.00
2018-07-08T23:58:05.276Z,12.00
